createdAt,value
2022-11-30T00:01:19.980Z,13.43
2022-11-30T00:03:48.166Z,13.35
2022-11-30T00:06:22.766Z,13.45
2022-11-30T00:08:53.595Z,12.20
2022-11-30T00:11:21.799Z,12.73
2022-11-30T00:13:49.597Z,12.18
2022-11-30T00:16:17.261Z,12.50
2022-11-30T00:18:44.642Z,11.50
2022-11-30T00:21:14.011Z,11.88
2022-11-30T00:23:43.181Z,12.82
2022-11-30T00:26:13.467Z,10.93
2022-11-30T00:28:40.958Z,11.52
2022-11-30T00:31:11.393Z,11.00
2022-11-30T00:33:39.935Z,9.93
2022-11-30T00:36:10.850Z,10.35
2022-11-30T00:38:38.841Z,10.50
2022-11-30T00:41:06.553Z,10.48
2022-11-30T00:43:33.956Z,10.65
2022-11-30T00:46:01.633Z,10.25
2022-11-30T00:48:29.027Z,10.30
2022-11-30T00:50:56.399Z,9.73
2022-11-30T00:53:23.945Z,10.00
2022-11-30T00:55:51.247Z,10.57
2022-11-30T00:58:19.714Z,9.85
2022-11-30T01:00:47.578Z,9.73
2022-11-30T01:03:15.391Z,9.85
2022-11-30T01:05:43.359Z,10.27
2022-11-30T01:08:12.222Z,9.85
2022-11-30T01:10:41.809Z,9.35
2022-11-30T01:13:09.323Z,9.18
2022-11-30T01:15:42.951Z,9.07
2022-11-30T01:18:10.598Z,9.70
2022-11-30T01:20:44.026Z,8.90
2022-11-30T01:23:11.497Z,9.75
2022-11-30T01:25:39.626Z,10.38
2022-11-30T01:28:07.096Z,10.50
2022-11-30T01:30:34.549Z,9.38
2022-11-30T01:33:03.631Z,9.32
2022-11-30T01:35:30.994Z,9.85
2022-11-30T01:37:58.470Z,8.93
2022-11-30T01:40:26.041Z,8.20
2022-11-30T01:42:53.333Z,8.45
2022-11-30T01:45:20.751Z,8.52
2022-11-30T01:47:52.246Z,8.38
2022-11-30T01:50:32.392Z,7.93
2022-11-30T01:53:01.690Z,8.23
2022-11-30T01:55:40.405Z,7.45
2022-11-30T01:58:15.379Z,7.82
2022-11-30T02:00:46.682Z,6.85
2022-11-30T02:03:24.959Z,7.60
2022-11-30T02:05:52.380Z,7.22
2022-11-30T02:08:20.253Z,7.20
2022-11-30T02:10:52.794Z,7.10
2022-11-30T02:13:54.355Z,7.05
2022-11-30T02:16:54.631Z,7.18
2022-11-30T02:19:59.934Z,7.28
2022-11-30T02:22:33.125Z,7.70
2022-11-30T02:25:39.556Z,7.53
2022-11-30T02:28:28.519Z,7.47
2022-11-30T02:30:56.753Z,6.57
2022-11-30T02:33:28.040Z,6.80
2022-11-30T02:35:55.976Z,6.90
2022-11-30T02:38:24.958Z,7.20
2022-11-30T02:40:52.842Z,6.75
2022-11-30T02:43:22.600Z,7.10
2022-11-30T02:45:59.823Z,6.97
2022-11-30T02:48:33.622Z,6.70
2022-11-30T02:51:02.887Z,7.28
2022-11-30T02:53:30.610Z,6.70
2022-11-30T02:55:57.946Z,6.85
2022-11-30T02:58:25.343Z,6.65
2022-11-30T03:00:52.983Z,6.95
2022-11-30T03:03:20.297Z,6.62
2022-11-30T03:05:47.611Z,7.18
2022-11-30T03:08:15.170Z,6.93
2022-11-30T03:10:42.530Z,6.45
2022-11-30T03:13:09.869Z,7.32
2022-11-30T03:15:37.507Z,6.53
2022-11-30T03:18:05.233Z,6.18
2022-11-30T03:20:32.837Z,7.37
2022-11-30T03:23:01.123Z,7.03
2022-11-30T03:25:29.128Z,6.80
2022-11-30T03:27:56.439Z,8.23
2022-11-30T03:30:24.004Z,7.70
2022-11-30T03:32:52.078Z,7.80
2022-11-30T03:35:20.465Z,8.05
2022-11-30T03:37:48.186Z,8.05
2022-11-30T03:40:15.662Z,7.55
2022-11-30T03:42:43.227Z,7.93
2022-11-30T03:45:11.148Z,9.25
2022-11-30T03:47:38.467Z,8.25
2022-11-30T03:50:06.514Z,7.90
2022-11-30T03:52:34.115Z,8.32
2022-11-30T03:55:01.417Z,8.68
2022-11-30T03:57:28.713Z,9.02
2022-11-30T03:59:56.257Z,8.73
2022-11-30T04:02:23.819Z,10.05
2022-11-30T04:04:51.461Z,8.05
2022-11-30T04:07:18.964Z,7.53
2022-11-30T04:09:46.300Z,8.18
2022-11-30T04:12:13.849Z,8.13
2022-11-30T04:14:41.146Z,7.75
2022-11-30T04:17:08.471Z,7.05
2022-11-30T04:19:36.141Z,7.15
2022-11-30T04:22:03.459Z,7.15
2022-11-30T04:24:30.790Z,7.90
2022-11-30T04:26:58.413Z,7.15
2022-11-30T04:29:25.839Z,6.87
2022-11-30T04:31:53.126Z,7.22
2022-11-30T04:34:20.738Z,7.75
2022-11-30T04:36:48.311Z,7.55
2022-11-30T04:39:16.471Z,7.62
2022-11-30T04:41:44.179Z,6.65
2022-11-30T04:44:11.482Z,7.05
2022-11-30T04:46:38.898Z,7.03
2022-11-30T04:49:06.619Z,6.82
2022-11-30T04:51:33.960Z,6.60
2022-11-30T04:54:01.453Z,7.53
2022-11-30T04:56:29.105Z,7.47
2022-11-30T04:58:56.425Z,7.32
2022-11-30T05:01:23.839Z,6.85
2022-11-30T05:03:51.479Z,6.90
2022-11-30T05:06:18.836Z,6.78
2022-11-30T05:08:46.186Z,6.97
2022-11-30T05:11:13.819Z,6.47
2022-11-30T05:13:41.179Z,6.40
2022-11-30T05:16:10.550Z,6.87
2022-11-30T05:18:38.191Z,7.20
2022-11-30T05:21:05.694Z,6.65
2022-11-30T05:23:33.010Z,6.87
2022-11-30T05:26:03.864Z,6.57
2022-11-30T05:28:31.207Z,6.50
2022-11-30T05:31:03.261Z,7.60
2022-11-30T05:33:31.286Z,7.25
2022-11-30T05:35:58.628Z,7.20
2022-11-30T05:38:25.995Z,7.05
2022-11-30T05:40:59.958Z,7.28
2022-11-30T05:43:27.911Z,6.90
2022-11-30T05:46:02.640Z,7.00
2022-11-30T05:48:30.295Z,7.53
2022-11-30T05:51:09.597Z,6.97
2022-11-30T05:53:37.176Z,6.80
2022-11-30T05:56:10.673Z,6.78
2022-11-30T05:58:38.507Z,7.68
2022-11-30T06:01:06.491Z,7.93
2022-11-30T06:03:35.278Z,6.62
2022-11-30T06:06:02.644Z,7.03
2022-11-30T06:08:30.206Z,7.32
2022-11-30T06:11:00.909Z,7.35
2022-11-30T06:13:29.042Z,7.25
2022-11-30T06:15:59.632Z,7.70
2022-11-30T06:18:27.227Z,8.35
2022-11-30T06:20:54.703Z,7.32
2022-11-30T06:23:22.050Z,7.30
2022-11-30T06:25:49.606Z,7.47
2022-11-30T06:28:16.883Z,7.78
2022-11-30T06:30:44.165Z,7.70
2022-11-30T06:33:11.795Z,7.10
2022-11-30T06:35:45.597Z,7.10
2022-11-30T06:38:13.480Z,6.50
2022-11-30T06:40:40.832Z,7.05
2022-11-30T06:43:08.221Z,6.97
2022-11-30T06:45:36.035Z,7.30
2022-11-30T06:48:03.749Z,6.87
2022-11-30T06:50:31.134Z,7.15
2022-11-30T06:52:59.069Z,7.72
2022-11-30T06:55:26.373Z,6.97
2022-11-30T06:57:53.713Z,6.07
2022-11-30T07:00:21.419Z,6.25
2022-11-30T07:02:48.835Z,6.93
2022-11-30T07:05:16.189Z,6.57
2022-11-30T07:07:43.833Z,6.90
2022-11-30T07:10:14.730Z,7.32
2022-11-30T07:12:45.376Z,6.53
2022-11-30T07:15:12.759Z,6.60
2022-11-30T07:17:40.102Z,6.70
2022-11-30T07:20:08.328Z,7.18
2022-11-30T07:22:35.751Z,6.80
2022-11-30T07:25:21.558Z,7.18
2022-11-30T07:27:49.208Z,6.85
2022-11-30T07:30:16.705Z,7.18
2022-11-30T07:32:44.045Z,7.97
2022-11-30T07:35:11.660Z,7.78
2022-11-30T07:37:39.026Z,8.88
2022-11-30T07:40:07.050Z,8.65
2022-11-30T07:42:34.722Z,7.80
2022-11-30T07:45:02.099Z,6.15
2022-11-30T07:47:29.402Z,6.45
2022-11-30T07:49:57.194Z,6.12
2022-11-30T07:52:24.848Z,5.87
2022-11-30T07:54:52.175Z,5.37
2022-11-30T07:57:19.965Z,5.55
2022-11-30T07:59:47.537Z,5.53
2022-11-30T08:02:15.311Z,5.10
2022-11-30T08:04:43.100Z,4.90
2022-11-30T08:07:11.132Z,5.75
2022-11-30T08:09:41.828Z,5.97
2022-11-30T08:12:09.447Z,6.00
2022-11-30T08:14:56.583Z,5.75
2022-11-30T08:17:24.531Z,5.28
2022-11-30T08:19:51.870Z,6.03
2022-11-30T08:22:19.199Z,5.20
2022-11-30T08:24:47.024Z,4.78
2022-11-30T08:27:14.525Z,4.87
2022-11-30T08:29:41.966Z,4.90
2022-11-30T08:32:09.574Z,4.62
2022-11-30T08:34:37.302Z,4.60
2022-11-30T08:37:04.643Z,4.93
2022-11-30T08:39:34.470Z,3.92
2022-11-30T08:42:02.254Z,4.05
2022-11-30T08:44:29.782Z,4.32
2022-11-30T08:46:57.455Z,4.32
2022-11-30T08:49:25.343Z,3.65
2022-11-30T08:54:45.381Z,3.42
2022-11-30T08:57:13.235Z,3.45
2022-11-30T08:59:40.536Z,3.60
2022-11-30T09:02:10.591Z,3.37
2022-11-30T09:04:37.943Z,3.80
2022-11-30T09:07:05.539Z,3.33
2022-11-30T09:09:33.159Z,3.40
2022-11-30T09:12:00.517Z,3.92
2022-11-30T09:14:27.971Z,3.40
2022-11-30T09:16:55.541Z,3.90
2022-11-30T09:19:22.837Z,3.80
2022-11-30T09:21:52.123Z,3.92
2022-11-30T09:24:20.632Z,3.95
2022-11-30T09:26:48.084Z,3.55
2022-11-30T09:29:15.469Z,3.70
2022-11-30T09:31:43.121Z,4.35
2022-11-30T09:34:11.937Z,4.78
2022-11-30T09:36:39.272Z,4.57
2022-11-30T09:39:06.893Z,3.90
2022-11-30T09:41:34.335Z,4.15
2022-11-30T09:44:37.277Z,3.78
2022-11-30T09:47:07.715Z,4.10
2022-11-30T09:49:48.666Z,4.05
2022-11-30T09:52:20.100Z,4.00
2022-11-30T09:54:48.056Z,3.92
2022-11-30T09:57:44.356Z,4.43
2022-11-30T10:00:23.022Z,3.95
2022-11-30T10:02:53.212Z,3.92
2022-11-30T10:05:23.222Z,4.30
2022-11-30T10:08:10.224Z,3.65
2022-11-30T10:10:43.384Z,4.57
2022-11-30T10:13:13.710Z,4.57
2022-11-30T10:16:13.166Z,4.12
2022-11-30T10:19:17.771Z,4.70
2022-11-30T10:22:01.903Z,4.15
2022-11-30T10:24:38.754Z,4.50
2022-11-30T10:27:17.317Z,3.95
2022-11-30T10:29:45.102Z,4.03
2022-11-30T10:32:19.773Z,4.15
2022-11-30T10:34:52.275Z,4.97
2022-11-30T10:37:19.560Z,4.50
2022-11-30T10:40:14.002Z,4.68
2022-11-30T10:43:09.186Z,4.32
2022-11-30T10:45:41.025Z,4.97
2022-11-30T10:48:31.349Z,4.53
2022-11-30T10:51:00.798Z,4.87
2022-11-30T10:53:28.417Z,5.35
2022-11-30T10:56:07.514Z,4.80
2022-11-30T10:58:52.752Z,5.03
2022-11-30T11:01:35.551Z,4.65
2022-11-30T11:04:23.311Z,4.53
2022-11-30T11:07:00.158Z,4.68
2022-11-30T11:09:50.513Z,3.95
2022-11-30T11:12:24.902Z,4.60
2022-11-30T11:15:19.495Z,5.00
2022-11-30T11:17:47.668Z,4.55
2022-11-30T11:20:35.500Z,4.62
2022-11-30T11:23:04.290Z,4.40
2022-11-30T11:25:36.698Z,4.70
2022-11-30T11:28:13.620Z,5.32
2022-11-30T11:30:41.477Z,5.03
2022-11-30T11:33:11.978Z,5.07
2022-11-30T11:35:46.174Z,4.62
2022-11-30T11:38:43.317Z,4.30
2022-11-30T11:41:16.713Z,4.80
2022-11-30T11:43:56.574Z,5.22
2022-11-30T11:46:24.804Z,4.85
2022-11-30T11:49:02.074Z,4.57
2022-11-30T11:51:31.867Z,5.05
2022-11-30T11:54:17.572Z,4.68
2022-11-30T11:56:44.966Z,4.62
2022-11-30T11:59:46.403Z,5.53
2022-11-30T12:02:22.230Z,5.30
2022-11-30T12:05:16.322Z,4.95
2022-11-30T12:08:01.672Z,5.43
2022-11-30T12:10:51.908Z,5.28
2022-11-30T12:13:22.347Z,5.07
2022-11-30T12:16:11.935Z,5.25
2022-11-30T12:18:48.398Z,5.22
2022-11-30T12:21:23.851Z,5.65
2022-11-30T12:24:14.921Z,6.07
2022-11-30T12:26:47.573Z,5.05
2022-11-30T12:29:22.371Z,5.47
2022-11-30T12:32:01.838Z,5.50
2022-11-30T12:35:08.320Z,4.95
2022-11-30T12:37:57.788Z,5.72
2022-11-30T12:40:44.050Z,5.80
2022-11-30T12:43:34.598Z,5.20
2022-11-30T12:46:23.246Z,4.87
2022-11-30T12:49:11.026Z,5.60
2022-11-30T12:51:52.277Z,6.93
2022-11-30T12:54:35.106Z,7.22
2022-11-30T12:57:27.573Z,5.80
2022-11-30T13:00:04.315Z,5.65
2022-11-30T13:02:51.370Z,5.68
2022-11-30T13:05:45.347Z,5.53
2022-11-30T13:08:22.426Z,5.60
2022-11-30T13:10:57.493Z,5.43
2022-11-30T13:13:27.018Z,5.05
2022-11-30T13:15:55.400Z,5.28
2022-11-30T13:18:23.948Z,6.22
2022-11-30T13:21:13.518Z,5.60
2022-11-30T13:23:46.984Z,5.82
2022-11-30T13:26:16.997Z,5.75
2022-11-30T13:29:04.211Z,5.25
2022-11-30T13:31:37.741Z,4.93
2022-11-30T13:34:25.786Z,4.20
2022-11-30T13:37:01.674Z,4.80
2022-11-30T13:39:31.505Z,5.45
2022-11-30T13:42:01.723Z,5.10
2022-11-30T13:44:40.704Z,5.90
2022-11-30T13:47:34.659Z,4.85
2022-11-30T13:50:07.976Z,4.30
2022-11-30T13:53:00.603Z,4.60
2022-11-30T13:55:34.291Z,4.30
2022-11-30T13:58:01.489Z,3.30
2022-11-30T14:00:29.587Z,3.35
2022-11-30T14:03:22.620Z,2.97
2022-11-30T14:05:51.359Z,3.55
2022-11-30T14:08:21.850Z,2.50
2022-11-30T14:10:52.779Z,2.67
2022-11-30T14:13:23.609Z,2.72
2022-11-30T14:16:01.914Z,2.70
2022-11-30T14:18:42.395Z,2.78
2022-11-30T14:21:14.774Z,2.87
2022-11-30T14:24:00.923Z,4.25
2022-11-30T14:26:36.598Z,3.55
2022-11-30T14:29:10.576Z,3.03
2022-11-30T14:31:43.251Z,3.50
2022-11-30T14:34:16.130Z,3.12
2022-11-30T14:36:46.529Z,2.45
2022-11-30T14:39:31.891Z,3.22
2022-11-30T14:41:59.720Z,2.90
2022-11-30T14:44:27.685Z,3.08
2022-11-30T14:46:55.152Z,3.35
2022-11-30T14:49:23.844Z,2.53
2022-11-30T14:52:00.907Z,2.62
2022-11-30T14:54:35.843Z,3.10
2022-11-30T14:57:25.007Z,3.33
2022-11-30T14:59:54.409Z,3.10
2022-11-30T15:02:34.263Z,3.58
2022-11-30T15:05:02.198Z,3.15
2022-11-30T15:07:30.027Z,3.53
2022-11-30T15:10:29.610Z,3.80
2022-11-30T15:12:58.949Z,3.72
2022-11-30T15:15:27.872Z,3.40
2022-11-30T15:18:28.634Z,3.30
2022-11-30T15:21:00.410Z,3.37
2022-11-30T15:23:27.894Z,4.30
2022-11-30T15:26:01.716Z,4.57
2022-11-30T15:28:37.657Z,3.95
2022-11-30T15:31:10.672Z,3.37
2022-11-30T15:33:43.086Z,3.35
2022-11-30T15:36:31.228Z,3.47
2022-11-30T15:38:59.305Z,3.78
2022-11-30T15:41:26.963Z,3.97
2022-11-30T15:43:56.106Z,4.37
2022-11-30T15:46:44.531Z,4.10
2022-11-30T15:49:21.295Z,4.35
2022-11-30T15:52:04.638Z,4.03
2022-11-30T15:54:52.587Z,3.75
2022-11-30T15:57:21.173Z,3.97
2022-11-30T16:00:07.990Z,4.93
2022-11-30T16:02:37.103Z,4.47
2022-11-30T16:05:13.780Z,5.35
2022-11-30T16:07:57.247Z,4.37
2022-11-30T16:10:36.483Z,4.45
2022-11-30T16:13:04.735Z,4.50
2022-11-30T16:15:37.190Z,4.70
2022-11-30T16:18:16.163Z,4.15
2022-11-30T16:20:49.135Z,4.62
2022-11-30T16:23:17.387Z,4.78
2022-11-30T16:25:46.557Z,6.55
2022-11-30T16:28:15.286Z,7.75
2022-11-30T16:30:43.740Z,8.13
2022-11-30T16:33:24.796Z,13.07
2022-11-30T16:36:13.864Z,11.05
2022-11-30T16:38:41.297Z,7.30
2022-11-30T16:41:23.250Z,5.95
2022-11-30T16:43:52.733Z,5.55
2022-11-30T16:46:27.525Z,5.03
2022-11-30T16:48:55.372Z,6.18
2022-11-30T16:51:27.879Z,6.70
2022-11-30T16:53:55.651Z,6.57
2022-11-30T16:56:24.069Z,7.45
2022-11-30T16:58:51.731Z,8.48
2022-11-30T17:01:27.993Z,11.98
2022-11-30T17:03:59.859Z,10.32
2022-11-30T17:06:27.262Z,9.60
2022-11-30T17:08:54.855Z,10.80
2022-11-30T17:11:29.433Z,10.25
2022-11-30T17:13:56.823Z,12.15
2022-11-30T17:16:24.550Z,17.62
2022-11-30T17:18:51.947Z,16.60
2022-11-30T17:21:25.195Z,21.98
2022-11-30T17:23:52.851Z,20.52
2022-11-30T17:26:20.223Z,14.90
2022-11-30T17:28:47.855Z,14.15
2022-11-30T17:31:15.944Z,13.35
2022-11-30T17:33:47.886Z,14.15
2022-11-30T17:36:17.083Z,14.40
2022-11-30T17:38:45.187Z,13.27
2022-11-30T17:41:19.220Z,12.50
2022-11-30T17:43:48.209Z,12.75
2022-11-30T17:46:17.626Z,13.35
2022-11-30T17:48:45.062Z,13.43
2022-11-30T17:51:12.890Z,13.40
2022-11-30T17:53:41.787Z,14.10
2022-11-30T17:56:12.246Z,14.43
2022-11-30T17:58:43.744Z,15.90
2022-11-30T18:01:15.499Z,16.62
2022-11-30T18:03:43.611Z,17.83
2022-11-30T18:06:11.077Z,19.98
2022-11-30T18:08:40.085Z,19.90
2022-11-30T18:11:12.967Z,19.12
2022-11-30T18:13:40.578Z,23.23
2022-11-30T18:16:15.746Z,21.95
2022-11-30T18:18:47.683Z,22.58
2022-11-30T18:21:18.173Z,22.98
2022-11-30T18:23:46.131Z,21.58
2022-11-30T18:26:15.827Z,21.30
2022-11-30T18:28:43.865Z,21.35
2022-11-30T18:31:11.415Z,20.58
2022-11-30T18:33:39.034Z,22.73
2022-11-30T18:36:07.680Z,22.13
2022-11-30T18:38:38.298Z,22.00
2022-11-30T18:41:06.656Z,22.30
2022-11-30T18:43:34.740Z,24.67
2022-11-30T18:46:07.667Z,23.70
2022-11-30T18:48:35.706Z,25.52
2022-11-30T18:51:14.515Z,39.25
2022-11-30T18:53:42.291Z,34.20
2022-11-30T18:56:13.083Z,33.80
2022-11-30T18:58:44.581Z,41.20
2022-11-30T19:01:14.903Z,39.40
2022-11-30T19:03:43.618Z,37.53
2022-11-30T19:06:11.144Z,36.67
2022-11-30T19:08:39.635Z,41.08
2022-11-30T19:11:08.688Z,40.05
2022-11-30T19:13:36.621Z,36.75
2022-11-30T19:16:06.211Z,37.70
2022-11-30T19:18:33.571Z,36.50
2022-11-30T19:21:01.410Z,35.75
2022-11-30T19:23:29.071Z,32.88
2022-11-30T19:26:00.554Z,29.58
2022-11-30T19:28:31.813Z,25.65
2022-11-30T19:30:59.487Z,23.23
2022-11-30T19:33:27.819Z,21.67
2022-11-30T19:36:00.743Z,23.50
2022-11-30T19:38:28.323Z,27.13
2022-11-30T19:40:55.714Z,23.83
2022-11-30T19:43:23.561Z,23.73
2022-11-30T19:45:51.178Z,23.92
2022-11-30T19:48:19.003Z,28.55
2022-11-30T19:50:46.363Z,40.38
2022-11-30T19:53:14.060Z,39.38
2022-11-30T19:55:41.424Z,37.45
2022-11-30T19:58:08.710Z,31.23
2022-11-30T20:00:36.321Z,28.85
2022-11-30T20:03:09.553Z,30.65
2022-11-30T20:05:37.786Z,29.92
2022-11-30T20:08:05.808Z,29.05
2022-11-30T20:10:33.153Z,30.85
2022-11-30T20:13:00.509Z,34.03
2022-11-30T20:15:28.125Z,35.78
2022-11-30T20:17:55.731Z,33.15
2022-11-30T20:20:23.103Z,32.53
2022-11-30T20:22:50.850Z,33.92
2022-11-30T20:25:18.141Z,33.95
2022-11-30T20:27:45.442Z,36.67
2022-11-30T20:30:13.122Z,36.53
2022-11-30T20:32:42.379Z,35.20
2022-11-30T20:35:10.294Z,35.45
2022-11-30T20:37:37.923Z,35.80
2022-11-30T20:40:06.188Z,32.65
2022-11-30T20:42:33.587Z,33.42
2022-11-30T20:45:01.210Z,33.92
2022-11-30T20:47:33.404Z,33.33
2022-11-30T20:50:03.659Z,31.27
2022-11-30T20:52:31.093Z,32.53
2022-11-30T20:54:58.395Z,33.63
2022-11-30T20:57:26.002Z,31.42
2022-11-30T20:59:53.327Z,31.83
2022-11-30T21:02:20.668Z,30.95
2022-11-30T21:04:48.664Z,32.45
2022-11-30T21:07:16.303Z,33.47
2022-11-30T21:09:43.634Z,32.15
2022-11-30T21:12:11.244Z,30.90
2022-11-30T21:14:39.221Z,31.35
2022-11-30T21:17:06.579Z,26.95
2022-11-30T21:19:34.170Z,24.85
2022-11-30T21:22:01.510Z,26.00
2022-11-30T21:24:28.822Z,23.27
2022-11-30T21:26:56.414Z,22.20
2022-11-30T21:29:23.714Z,22.23
2022-11-30T21:31:51.062Z,18.85
2022-11-30T21:34:18.910Z,18.25
2022-11-30T21:36:46.228Z,16.40
2022-11-30T21:39:14.623Z,16.62
2022-11-30T21:41:42.382Z,15.10
2022-11-30T21:44:12.005Z,13.10
2022-11-30T21:46:39.524Z,13.38
2022-11-30T21:49:07.275Z,11.85
2022-11-30T21:51:34.585Z,12.90
2022-11-30T21:54:04.736Z,11.88
2022-11-30T21:56:34.885Z,11.77
2022-11-30T21:59:04.712Z,11.50
2022-11-30T22:01:37.752Z,10.70
2022-11-30T22:04:06.796Z,13.00
2022-11-30T22:06:36.005Z,11.32
2022-11-30T22:09:08.470Z,10.77
2022-11-30T22:11:38.952Z,10.77
2022-11-30T22:14:07.810Z,10.50
2022-11-30T22:16:36.446Z,10.90
2022-11-30T22:19:05.684Z,12.00
2022-11-30T22:21:33.734Z,10.02
2022-11-30T22:24:03.114Z,10.15
2022-11-30T22:26:35.982Z,10.50
2022-11-30T22:29:05.388Z,10.20
2022-11-30T22:31:38.904Z,10.63
2022-11-30T22:34:06.865Z,9.95
2022-11-30T22:36:36.737Z,10.65
2022-11-30T22:39:06.752Z,10.07
2022-11-30T22:41:34.321Z,11.07
2022-11-30T22:44:01.833Z,10.65
2022-11-30T22:46:31.265Z,11.32
2022-11-30T22:49:03.575Z,11.23
2022-11-30T22:51:32.478Z,11.00
2022-11-30T22:54:00.604Z,11.88
2022-11-30T22:56:31.999Z,11.12
2022-11-30T22:59:00.891Z,12.15
2022-11-30T23:01:33.616Z,10.57
2022-11-30T23:04:07.455Z,11.95
2022-11-30T23:06:35.341Z,12.07
2022-11-30T23:09:04.340Z,11.40
2022-11-30T23:11:31.838Z,10.10
2022-11-30T23:13:59.176Z,10.85
2022-11-30T23:16:26.866Z,11.32
2022-11-30T23:18:57.050Z,11.70
2022-11-30T23:21:30.411Z,11.10
2022-11-30T23:24:00.505Z,11.18
2022-11-30T23:26:37.971Z,10.43
2022-11-30T23:29:08.029Z,10.23
2022-11-30T23:31:37.307Z,10.05
2022-11-30T23:34:09.672Z,10.00
2022-11-30T23:36:38.250Z,10.35
2022-11-30T23:39:09.087Z,10.15
2022-11-30T23:41:36.661Z,9.88
2022-11-30T23:44:04.214Z,9.23
2022-11-30T23:46:31.822Z,8.52
2022-11-30T23:48:59.566Z,9.07
2022-11-30T23:51:27.069Z,9.23
2022-11-30T23:53:54.771Z,9.27
2022-11-30T23:56:24.020Z,9.27
2022-11-30T23:58:51.963Z,8.27
